Traskwood, Arkansas
Current Conditions -  °F | °C
As of 5:53 PM on Sunday 23 Nov 2014 (Local Time) from KHOT Reporting Station
Broken Clouds Broken Clouds  
Wind Chill: 64°   Ceiling: 5500
Heat Index: 64°   Visibility: 10mi
Dew Point: 59°   Wind: 6mph
Humidity: 84%   Direction: 200°SSW
Pressure: 29.4"   Gusts: NA
Location:  34.45°N, 92.65°W
Report Text: KHOT 232353Z AUTO 20005KT 10SM FEW025 SCT045 BKN055 18/15 A2940 RMK AO2 SLP951 T01780150 10189 20161 53017
Loading
Personal Weather Stations






























Interactive Weather Map New forecast layout! Learn more

10-Day Weather Forecast

Advertisements
Track Severe Weather on mobile